createdAt,value
2024-02-24T00:04:49.354Z,23.20
2024-02-24T00:11:50.901Z,24.00
2024-02-24T00:18:56.552Z,25.67
2024-02-24T00:25:58.092Z,24.30
2024-02-24T00:32:59.618Z,24.10
2024-02-24T00:40:01.153Z,25.80
2024-02-24T00:47:02.700Z,25.90
2024-02-24T00:54:05.519Z,30.98
2024-02-24T01:35:18.437Z,68.85
2024-02-24T01:42:20.114Z,67.70
2024-02-24T01:49:21.627Z,67.00
2024-02-24T01:56:25.678Z,62.10
2024-02-24T02:03:46.212Z,61.40
2024-02-24T02:10:49.901Z,64.90
2024-02-24T02:26:31.449Z,58.60
2024-02-24T02:33:33.080Z,60.95
2024-02-24T02:40:35.091Z,61.85
2024-02-24T03:55:09.566Z,46.07
2024-02-24T04:02:11.091Z,45.35
2024-02-24T04:17:35.568Z,41.60
2024-02-24T04:24:37.122Z,41.45
2024-02-24T04:48:22.356Z,32.72
2024-02-24T04:55:23.917Z,30.15
2024-02-24T05:35:53.356Z,31.17
2024-02-24T05:42:55.020Z,32.50
2024-02-24T05:49:56.483Z,29.15
2024-02-24T05:56:58.036Z,28.88
2024-02-24T06:20:43.307Z,29.05
2024-02-24T06:27:44.753Z,26.88
2024-02-24T06:34:46.477Z,29.88
2024-02-24T06:41:48.005Z,29.45
2024-02-24T06:48:49.721Z,25.95
2024-02-24T06:55:51.264Z,29.15
2024-02-24T07:02:54.656Z,27.80
2024-02-24T07:09:56.303Z,26.90
2024-02-24T07:16:57.770Z,24.30
2024-02-24T07:23:59.277Z,24.35
2024-02-24T07:31:00.882Z,24.25
2024-02-24T07:46:31.347Z,22.75
2024-02-24T08:19:21.599Z,23.38
2024-02-24T08:26:23.122Z,25.80
2024-02-24T08:33:24.828Z,20.40
2024-02-24T08:40:27.219Z,20.48
2024-02-24T08:55:56.179Z,20.55
2024-02-24T09:02:58.008Z,22.48
2024-02-24T09:18:21.467Z,22.83
2024-02-24T09:25:23.117Z,23.13
2024-02-24T09:32:24.601Z,22.05
2024-02-24T09:39:26.081Z,23.75
2024-02-24T09:46:28.350Z,26.40
2024-02-24T09:53:29.934Z,24.77
2024-02-24T10:00:31.426Z,23.90
2024-02-24T10:07:35.590Z,24.90
2024-02-24T10:22:59.268Z,23.73
2024-02-24T10:30:04.011Z,21.55
2024-02-24T10:37:06.814Z,22.65
2024-02-24T10:44:18.444Z,30.83
2024-02-24T10:51:24.256Z,24.17
2024-02-24T11:32:15.573Z,15.57
2024-02-24T11:39:18.623Z,19.80
2024-02-24T11:46:20.093Z,16.35
2024-02-24T11:53:21.639Z,17.63
2024-02-24T12:08:46.298Z,21.60
2024-02-24T12:15:48.211Z,19.42
2024-02-24T12:22:49.656Z,19.23
2024-02-24T12:29:51.979Z,22.80
2024-02-24T12:45:16.147Z,24.52
2024-02-24T12:52:36.059Z,24.40
2024-02-24T12:59:37.523Z,24.73
2024-02-24T13:06:40.590Z,21.98
2024-02-24T13:13:42.257Z,22.77
2024-02-24T13:20:44.463Z,23.88
2024-02-24T13:27:47.841Z,20.08
2024-02-24T13:34:49.374Z,22.33
2024-02-24T13:42:06.563Z,22.17
2024-02-24T13:49:11.232Z,21.55
2024-02-24T13:56:12.802Z,22.33
2024-02-24T14:03:14.325Z,21.50
2024-02-24T14:10:15.852Z,20.52
2024-02-24T14:17:17.434Z,20.45
2024-02-24T14:24:21.300Z,22.23
2024-02-24T14:31:23.539Z,27.52
2024-02-24T14:55:11.499Z,24.33
2024-02-24T15:18:57.144Z,26.92
2024-02-24T15:25:58.714Z,40.47
2024-02-24T15:33:02.110Z,36.30
2024-02-24T15:40:09.128Z,34.45
2024-02-24T15:47:10.733Z,35.47
2024-02-24T15:54:12.162Z,30.48
2024-02-24T16:01:13.766Z,33.20
2024-02-24T16:16:37.069Z,38.50
2024-02-24T16:23:38.848Z,35.63
2024-02-24T16:30:40.341Z,43.50
2024-02-24T16:46:03.982Z,31.00
2024-02-24T16:53:05.494Z,40.65
2024-02-24T17:16:51.662Z,50.60
2024-02-24T17:23:53.274Z,67.78
2024-02-24T17:30:55.960Z,52.13
2024-02-24T17:55:00.604Z,70.57
2024-02-24T18:02:02.149Z,53.78
2024-02-24T18:09:03.941Z,42.53
2024-02-24T18:58:53.017Z,115.40
2024-02-24T19:05:55.552Z,92.57
2024-02-24T19:12:57.450Z,82.03
2024-02-24T19:45:11.129Z,81.63
2024-02-24T19:52:12.777Z,79.05
2024-02-24T19:59:14.221Z,79.40
2024-02-24T20:06:15.799Z,88.82
2024-02-24T20:21:38.794Z,72.10
2024-02-24T20:28:43.726Z,67.60
2024-02-24T20:35:46.662Z,69.50
2024-02-24T20:42:48.118Z,66.95
2024-02-24T20:49:50.728Z,59.05
2024-02-24T21:05:26.936Z,59.45
2024-02-24T21:12:28.439Z,55.30
2024-02-24T21:27:51.859Z,43.08
2024-02-24T21:34:53.940Z,42.92
2024-02-24T21:41:55.483Z,44.60
2024-02-24T21:48:57.227Z,41.25
2024-02-24T21:55:59.002Z,40.83
2024-02-24T22:03:00.693Z,42.75
2024-02-24T22:18:39.269Z,62.35
2024-02-24T22:25:40.881Z,51.10
2024-02-24T22:32:45.827Z,46.53
2024-02-24T22:39:47.692Z,45.88
2024-02-24T23:03:32.828Z,47.38
2024-02-24T23:10:34.275Z,48.78
2024-02-24T23:17:35.816Z,55.55
2024-02-24T23:24:37.584Z,57.03
2024-02-24T23:31:39.322Z,51.67
2024-02-24T23:38:40.826Z,49.63
2024-02-24T23:45:44.140Z,51.80
2024-02-24T23:52:45.583Z,57.17
2024-02-24T23:59:47.171Z,59.30
